createdAt,value
2017-06-19T00:00:12.926Z,0
2017-06-19T00:00:53.832Z,0
2017-06-19T00:01:34.734Z,0
2017-06-19T00:02:15.723Z,0
2017-06-19T00:02:56.655Z,0
2017-06-19T00:03:37.559Z,0
2017-06-19T00:04:18.482Z,0
2017-06-19T00:04:59.396Z,0
2017-06-19T00:05:40.751Z,0
2017-06-19T00:06:21.677Z,0
2017-06-19T00:07:02.568Z,0
2017-06-19T00:07:43.469Z,0
2017-06-19T00:08:24.353Z,0
2017-06-19T00:09:05.259Z,0
2017-06-19T00:09:46.162Z,0
2017-06-19T00:10:27.058Z,0
2017-06-19T00:11:07.962Z,0
2017-06-19T00:11:48.868Z,0
2017-06-19T00:12:29.770Z,0
2017-06-19T00:13:10.672Z,0
2017-06-19T00:13:51.568Z,0
2017-06-19T00:14:32.457Z,0
2017-06-19T00:15:13.362Z,0
2017-06-19T00:15:54.253Z,0
2017-06-19T00:16:35.161Z,0
2017-06-19T00:17:16.049Z,0
2017-06-19T00:17:56.955Z,0
2017-06-19T00:18:37.840Z,0
2017-06-19T00:19:18.722Z,0
2017-06-19T00:19:59.631Z,0
2017-06-19T00:20:40.533Z,0
2017-06-19T00:21:21.419Z,0
2017-06-19T00:22:02.321Z,0
2017-06-19T00:22:43.220Z,0
2017-06-19T00:23:24.118Z,0
2017-06-19T00:25:38.294Z,0
2017-06-19T00:26:19.175Z,0
2017-06-19T00:27:00.061Z,0
2017-06-19T00:27:40.962Z,0
2017-06-19T00:28:21.858Z,0
2017-06-19T00:29:02.776Z,0
2017-06-19T00:29:43.658Z,0
2017-06-19T00:30:24.546Z,0
2017-06-19T00:31:05.451Z,0
2017-06-19T00:31:46.346Z,0
2017-06-19T00:32:27.220Z,0
2017-06-19T00:33:08.118Z,0
2017-06-19T00:33:49.011Z,0
2017-06-19T00:34:29.910Z,0
2017-06-19T00:35:10.807Z,0
2017-06-19T00:35:51.694Z,0
2017-06-19T00:36:32.588Z,0
2017-06-19T00:37:13.480Z,0
2017-06-19T00:37:54.366Z,0
2017-06-19T00:38:35.246Z,0
2017-06-19T00:39:16.140Z,0
2017-06-19T00:39:57.032Z,0
2017-06-19T00:40:37.929Z,0
2017-06-19T00:41:18.823Z,0
2017-06-19T00:41:59.700Z,0
2017-06-19T00:42:40.588Z,0
2017-06-19T00:43:21.478Z,0
2017-06-19T00:44:02.385Z,0
2017-06-19T00:44:43.276Z,0
2017-06-19T00:45:24.180Z,0
2017-06-19T00:46:05.076Z,0
2017-06-19T00:46:45.972Z,0
2017-06-19T00:47:26.868Z,0
2017-06-19T00:48:07.758Z,0
2017-06-19T00:48:48.646Z,0
2017-06-19T00:49:29.561Z,0
2017-06-19T00:50:10.462Z,0
2017-06-19T00:50:51.350Z,0
2017-06-19T00:51:32.266Z,0
2017-06-19T00:52:13.157Z,0
2017-06-19T00:52:54.053Z,0
2017-06-19T00:53:34.961Z,0
2017-06-19T00:54:15.904Z,0
2017-06-19T00:54:56.822Z,0
2017-06-19T00:55:37.724Z,0
2017-06-19T00:56:18.634Z,0
2017-06-19T00:56:59.523Z,0
2017-06-19T00:57:40.443Z,0
2017-06-19T00:58:21.351Z,0
2017-06-19T00:59:02.248Z,0
2017-06-19T00:59:43.171Z,0
2017-06-19T01:00:24.076Z,0
2017-06-19T01:01:05.041Z,0
2017-06-19T01:03:19.219Z,0
2017-06-19T01:04:00.106Z,0
2017-06-19T01:04:41.004Z,0
2017-06-19T01:05:21.936Z,0
2017-06-19T01:06:02.808Z,0
2017-06-19T01:06:43.701Z,0
2017-06-19T01:07:24.617Z,0
2017-06-19T01:08:05.518Z,0
2017-06-19T01:08:46.417Z,0
2017-06-19T01:09:27.361Z,0
2017-06-19T01:10:08.283Z,0
2017-06-19T01:10:49.205Z,0
2017-06-19T01:11:30.152Z,0
2017-06-19T01:12:11.032Z,0
2017-06-19T01:12:51.993Z,0
2017-06-19T01:13:32.877Z,0
2017-06-19T01:14:13.766Z,0
2017-06-19T01:14:54.739Z,0
2017-06-19T01:15:35.647Z,0
2017-06-19T01:16:16.565Z,0
2017-06-19T01:16:57.443Z,0
2017-06-19T01:17:38.359Z,0
2017-06-19T01:18:19.244Z,0
2017-06-19T01:19:00.147Z,0
2017-06-19T01:19:41.051Z,0
2017-06-19T01:20:22.050Z,0
2017-06-19T01:21:02.939Z,0
2017-06-19T01:21:43.853Z,0
2017-06-19T01:22:24.736Z,0
2017-06-19T01:23:05.644Z,0
2017-06-19T01:23:46.526Z,0
2017-06-19T01:24:27.440Z,0
2017-06-19T01:25:08.373Z,0
2017-06-19T01:25:49.284Z,0
2017-06-19T01:26:30.200Z,0
2017-06-19T01:27:11.099Z,0
2017-06-19T01:29:25.593Z,0
2017-06-19T01:30:06.615Z,0
2017-06-19T01:30:47.511Z,0
2017-06-19T01:31:28.409Z,0
2017-06-19T01:32:09.370Z,0
2017-06-19T01:32:50.369Z,0
2017-06-19T01:33:31.524Z,0
2017-06-19T01:36:56.310Z,0
2017-06-19T01:37:37.230Z,0
2017-06-19T01:38:18.135Z,0
2017-06-19T01:38:59.019Z,0
2017-06-19T01:39:39.914Z,0
2017-06-19T01:40:20.806Z,0
2017-06-19T01:41:01.697Z,0
2017-06-19T01:41:42.586Z,0
2017-06-19T01:42:23.472Z,0
2017-06-19T01:43:04.363Z,0
2017-06-19T01:43:45.256Z,0
2017-06-19T01:44:26.152Z,0
2017-06-19T01:45:07.040Z,0
2017-06-19T01:45:47.935Z,0
2017-06-19T01:46:28.831Z,0
2017-06-19T01:47:09.728Z,0
2017-06-19T01:47:50.627Z,0
2017-06-19T01:48:31.548Z,0
2017-06-19T01:49:12.434Z,0
2017-06-19T01:49:53.347Z,0
2017-06-19T01:50:34.245Z,0
2017-06-19T01:51:15.138Z,0
2017-06-19T01:51:56.049Z,0
2017-06-19T01:52:36.959Z,0
2017-06-19T01:53:17.876Z,0
2017-06-19T01:55:27.902Z,0
2017-06-19T01:56:08.804Z,0
2017-06-19T01:56:49.773Z,0
2017-06-19T01:57:30.610Z,0
2017-06-19T01:59:50.049Z,0
2017-06-19T02:00:30.955Z,0
2017-06-19T02:01:11.851Z,0
2017-06-19T02:03:41.027Z,0
2017-06-19T02:04:21.923Z,0
2017-06-19T02:05:02.912Z,0
2017-06-19T02:05:43.806Z,0
2017-06-19T02:06:24.704Z,0
2017-06-19T02:07:05.606Z,0
2017-06-19T02:07:46.496Z,0
2017-06-19T02:08:27.382Z,0
2017-06-19T02:09:08.264Z,0
2017-06-19T02:09:49.168Z,0
2017-06-19T02:10:30.055Z,0
2017-06-19T02:11:10.961Z,0
2017-06-19T02:11:51.847Z,0
2017-06-19T02:12:32.742Z,0
2017-06-19T02:13:13.617Z,0
2017-06-19T02:13:54.537Z,0
2017-06-19T02:14:35.404Z,0
2017-06-19T02:15:16.289Z,0
2017-06-19T02:15:57.182Z,0
2017-06-19T02:16:38.068Z,0
2017-06-19T02:17:18.965Z,0
2017-06-19T02:17:59.853Z,0
2017-06-19T02:18:40.755Z,0
2017-06-19T02:19:21.653Z,0
2017-06-19T02:20:02.542Z,0
2017-06-19T02:20:43.443Z,0
2017-06-19T02:21:24.328Z,0
2017-06-19T02:22:05.212Z,0
2017-06-19T02:22:46.140Z,0
2017-06-19T02:23:27.002Z,0
2017-06-19T02:24:07.894Z,0
2017-06-19T02:24:48.800Z,0
2017-06-19T02:25:29.694Z,0
2017-06-19T02:26:10.599Z,0
2017-06-19T02:26:51.496Z,0
2017-06-19T02:27:32.388Z,0
2017-06-19T02:28:13.292Z,0
2017-06-19T02:28:54.175Z,0
2017-06-19T02:29:35.111Z,0
2017-06-19T02:30:15.982Z,0
2017-06-19T02:30:56.858Z,0
2017-06-19T02:31:37.758Z,0
2017-06-19T02:32:18.664Z,0
2017-06-19T02:32:59.580Z,0
2017-06-19T02:33:40.477Z,0
2017-06-19T02:34:21.371Z,0
2017-06-19T02:35:02.261Z,0
2017-06-19T02:35:43.161Z,0
2017-06-19T02:36:24.055Z,0
2017-06-19T02:37:04.942Z,0
2017-06-19T02:37:45.844Z,0
2017-06-19T02:38:26.730Z,0
2017-06-19T02:39:07.627Z,5
2017-06-19T02:39:48.544Z,5
2017-06-19T02:40:29.448Z,5
2017-06-19T02:41:10.337Z,5
2017-06-19T02:41:51.241Z,5
2017-06-19T02:42:32.135Z,5
2017-06-19T02:43:13.020Z,5
2017-06-19T02:43:53.908Z,5
2017-06-19T02:44:34.805Z,5
2017-06-19T02:45:15.723Z,5
2017-06-19T02:45:56.618Z,5
2017-06-19T02:46:37.513Z,5
2017-06-19T02:47:18.414Z,5
2017-06-19T02:47:59.315Z,5
2017-06-19T02:48:40.205Z,5
2017-06-19T02:49:21.107Z,5
2017-06-19T02:50:02.103Z,5
2017-06-19T02:51:55.740Z,10
2017-06-19T02:52:36.667Z,10
2017-06-19T02:53:17.552Z,10
2017-06-19T02:53:58.448Z,10
2017-06-19T02:54:39.353Z,10
2017-06-19T02:55:20.227Z,10
2017-06-19T02:56:01.152Z,10
2017-06-19T02:56:42.053Z,10
2017-06-19T02:57:22.979Z,10
2017-06-19T02:58:03.838Z,10
2017-06-19T02:58:44.737Z,10
2017-06-19T02:59:25.613Z,10
2017-06-19T03:00:06.559Z,15
2017-06-19T03:00:47.497Z,15
2017-06-19T03:01:28.367Z,15
2017-06-19T03:02:09.251Z,15
2017-06-19T03:02:50.160Z,15
2017-06-19T03:03:31.040Z,15
2017-06-19T03:04:12.006Z,15
2017-06-19T03:04:52.907Z,15
2017-06-19T03:05:33.827Z,15
2017-06-19T03:06:14.727Z,15
2017-06-19T03:06:55.718Z,15
2017-06-19T03:07:36.637Z,20
2017-06-19T03:08:17.539Z,20
2017-06-19T03:08:58.462Z,20
2017-06-19T03:09:39.350Z,20
2017-06-19T03:10:20.294Z,20
2017-06-19T03:11:01.214Z,20
2017-06-19T03:11:42.186Z,20
2017-06-19T03:13:36.989Z,20
2017-06-19T03:14:17.870Z,20
2017-06-19T03:14:58.783Z,25
2017-06-19T03:15:39.682Z,25
2017-06-19T03:16:20.825Z,25
2017-06-19T03:17:01.734Z,25
2017-06-19T03:17:42.678Z,25
2017-06-19T03:18:23.554Z,25
2017-06-19T03:20:37.336Z,25
2017-06-19T03:21:18.232Z,30
2017-06-19T03:21:59.125Z,30
2017-06-19T03:22:40.021Z,30
2017-06-19T03:23:20.928Z,30
2017-06-19T03:24:01.809Z,30
2017-06-19T03:24:42.693Z,30
2017-06-19T03:25:23.581Z,30
2017-06-19T03:26:04.474Z,30
2017-06-19T03:26:45.372Z,30
2017-06-19T03:27:26.302Z,30
2017-06-19T03:28:07.190Z,35
2017-06-19T03:28:48.097Z,35
2017-06-19T03:29:28.990Z,35
2017-06-19T03:30:09.896Z,35
2017-06-19T03:30:50.777Z,35
2017-06-19T03:31:31.673Z,35
2017-06-19T03:32:12.572Z,35
2017-06-19T03:32:53.457Z,35
2017-06-19T03:33:34.358Z,35
2017-06-19T03:34:15.246Z,35
2017-06-19T03:34:56.125Z,40
2017-06-19T03:35:37.000Z,40
2017-06-19T03:36:17.874Z,40
2017-06-19T03:36:58.777Z,40
2017-06-19T03:37:39.659Z,40
2017-06-19T03:38:20.548Z,40
2017-06-19T03:39:01.436Z,40
2017-06-19T03:39:42.333Z,40
2017-06-19T03:40:23.222Z,40
2017-06-19T03:41:04.111Z,40
2017-06-19T03:41:45.009Z,45
2017-06-19T03:42:25.893Z,45
2017-06-19T03:43:06.785Z,45
2017-06-19T03:43:47.686Z,45
2017-06-19T03:44:28.574Z,45
2017-06-19T03:45:09.481Z,45
2017-06-19T03:45:50.346Z,45
2017-06-19T03:46:31.218Z,45
2017-06-19T03:47:12.107Z,45
2017-06-19T03:47:53.023Z,50
2017-06-19T03:48:33.920Z,50
2017-06-19T03:49:14.802Z,50
2017-06-19T03:49:55.715Z,50
2017-06-19T03:50:36.622Z,50
2017-06-19T03:51:17.506Z,50
2017-06-19T03:55:04.892Z,55
2017-06-19T03:57:14.192Z,55
2017-06-19T03:57:55.098Z,55
2017-06-19T03:58:35.994Z,55
2017-06-19T03:59:16.892Z,60
2017-06-19T03:59:57.790Z,60
2017-06-19T04:00:38.685Z,60
2017-06-19T04:01:19.587Z,60
2017-06-19T04:02:00.482Z,60
2017-06-19T04:02:41.378Z,60
2017-06-19T04:03:22.272Z,60
2017-06-19T04:04:03.165Z,60
2017-06-19T04:04:44.060Z,65
2017-06-19T04:05:24.953Z,65
2017-06-19T04:06:05.843Z,65
2017-06-19T04:06:46.733Z,65
2017-06-19T04:07:27.654Z,65
2017-06-19T04:08:08.552Z,65
2017-06-19T04:08:49.442Z,65
2017-06-19T04:09:30.350Z,65
2017-06-19T04:10:11.285Z,65
2017-06-19T04:10:52.188Z,70
2017-06-19T04:11:33.079Z,70
2017-06-19T04:12:13.986Z,70
2017-06-19T04:12:54.877Z,70
2017-06-19T04:13:35.776Z,70
2017-06-19T04:14:16.683Z,70
2017-06-19T04:14:57.563Z,70
2017-06-19T04:15:38.459Z,70
2017-06-19T04:16:19.350Z,70
2017-06-19T04:17:00.214Z,70
2017-06-19T04:17:41.083Z,75
2017-06-19T04:18:21.993Z,75
2017-06-19T04:19:02.891Z,75
2017-06-19T04:19:43.767Z,75
2017-06-19T04:20:24.688Z,75
2017-06-19T04:21:05.568Z,75
2017-06-19T04:21:46.455Z,75
2017-06-19T04:22:27.358Z,75
2017-06-19T04:23:08.245Z,75
2017-06-19T04:23:49.156Z,80
2017-06-19T04:24:30.056Z,80
2017-06-19T04:25:10.946Z,80
2017-06-19T04:25:51.861Z,80
2017-06-19T04:26:32.736Z,80
2017-06-19T04:27:13.635Z,80
2017-06-19T04:27:54.540Z,80
2017-06-19T04:28:35.457Z,80
2017-06-19T04:29:18.257Z,80
2017-06-19T04:29:59.191Z,85
2017-06-19T04:30:40.052Z,85
2017-06-19T04:31:21.029Z,85
2017-06-19T04:32:01.929Z,85
2017-06-19T04:32:42.818Z,85
2017-06-19T04:33:23.714Z,85
2017-06-19T04:34:04.612Z,85
2017-06-19T04:34:45.491Z,85
2017-06-19T04:35:26.363Z,90
2017-06-19T04:36:07.284Z,90
2017-06-19T04:36:48.173Z,90
2017-06-19T04:37:29.109Z,90
2017-06-19T04:38:09.986Z,90
2017-06-19T04:38:50.919Z,90
2017-06-19T04:39:31.799Z,90
2017-06-19T04:40:12.673Z,90
2017-06-19T04:40:53.559Z,95
2017-06-19T04:41:34.466Z,95
2017-06-19T04:42:15.347Z,95
2017-06-19T04:42:56.263Z,95
2017-06-19T04:43:37.148Z,95
2017-06-19T04:44:18.051Z,95
2017-06-19T04:44:59.012Z,95
2017-06-19T04:45:39.919Z,95
2017-06-19T04:46:20.790Z,100
2017-06-19T04:47:01.656Z,100
2017-06-19T04:47:42.537Z,100
2017-06-19T04:48:25.259Z,100
2017-06-19T04:49:06.178Z,100
2017-06-19T04:49:47.044Z,100
2017-06-19T04:50:27.943Z,100
2017-06-19T04:51:08.845Z,100
2017-06-19T04:51:49.734Z,105
2017-06-19T04:52:30.637Z,105
2017-06-19T04:53:11.565Z,105
2017-06-19T04:53:52.457Z,105
2017-06-19T04:54:33.376Z,105
2017-06-19T04:55:14.284Z,105
2017-06-19T04:55:55.155Z,105
2017-06-19T04:56:36.109Z,110
2017-06-19T04:57:16.947Z,110
2017-06-19T04:57:59.390Z,110
2017-06-19T04:58:40.293Z,110
2017-06-19T04:59:21.174Z,110
2017-06-19T05:00:02.116Z,110
2017-06-19T05:00:43.017Z,115
2017-06-19T05:01:23.926Z,115
2017-06-19T05:02:04.874Z,115
2017-06-19T05:02:45.758Z,115
2017-06-19T05:03:26.767Z,115
2017-06-19T05:07:10.002Z,120
2017-06-19T05:07:50.902Z,120
2017-06-19T05:08:31.788Z,125
2017-06-19T05:09:12.674Z,125
2017-06-19T05:09:53.581Z,125
2017-06-19T05:10:34.548Z,125
2017-06-19T05:11:15.432Z,125
2017-06-19T05:11:56.361Z,125
2017-06-19T05:12:37.261Z,130
2017-06-19T05:13:18.173Z,130
2017-06-19T05:13:59.090Z,130
2017-06-19T05:14:40.021Z,130
2017-06-19T05:15:20.905Z,130
2017-06-19T05:16:01.808Z,130
2017-06-19T05:16:42.696Z,130
2017-06-19T05:17:23.583Z,135
2017-06-19T05:18:04.463Z,135
2017-06-19T05:18:45.353Z,140
2017-06-19T05:19:26.241Z,135
2017-06-19T05:21:25.133Z,140
2017-06-19T05:22:06.049Z,140
2017-06-19T05:23:59.688Z,145
2017-06-19T05:24:40.578Z,145
2017-06-19T05:26:59.969Z,150
2017-06-19T05:27:40.880Z,150
2017-06-19T05:28:21.780Z,150
2017-06-19T05:29:02.669Z,150
2017-06-19T05:29:43.570Z,155
2017-06-19T05:30:24.458Z,155
2017-06-19T05:31:05.370Z,155
2017-06-19T05:31:46.270Z,155
2017-06-19T05:32:27.185Z,160
2017-06-19T05:38:00.856Z,180
2017-06-19T05:38:41.820Z,185
2017-06-19T05:39:22.718Z,190
2017-06-19T05:43:42.790Z,200
2017-06-19T05:44:23.691Z,205
2017-06-19T05:45:04.592Z,210
2017-06-19T05:45:45.486Z,210
2017-06-19T05:46:26.384Z,215
2017-06-19T05:47:07.269Z,220
2017-06-19T05:47:48.174Z,225
2017-06-19T05:48:29.100Z,225
2017-06-19T05:49:09.999Z,230
2017-06-19T05:49:50.927Z,235
2017-06-19T05:50:31.862Z,240
2017-06-19T05:51:12.756Z,240
2017-06-19T05:51:53.688Z,245
2017-06-19T05:52:34.557Z,250
2017-06-19T05:53:15.432Z,255
2017-06-19T05:53:56.334Z,260
2017-06-19T05:54:38.199Z,270
2017-06-19T05:55:19.116Z,270
2017-06-19T05:56:00.126Z,275
2017-06-19T05:56:41.096Z,275
2017-06-19T05:57:21.942Z,280
2017-06-19T05:58:02.856Z,285
2017-06-19T05:58:43.884Z,290
2017-06-19T05:59:24.644Z,295
2017-06-19T06:00:05.529Z,300
2017-06-19T06:00:46.457Z,305
2017-06-19T06:01:27.369Z,310
2017-06-19T06:06:58.218Z,355
2017-06-19T06:07:39.185Z,360
2017-06-19T06:08:20.078Z,365
2017-06-19T06:09:01.692Z,365
2017-06-19T06:09:42.644Z,370
2017-06-19T06:10:23.577Z,370
2017-06-19T06:11:04.461Z,375
2017-06-19T06:13:35.602Z,380
2017-06-19T06:14:16.513Z,380
2017-06-19T06:14:57.434Z,380
2017-06-19T06:15:38.313Z,380
2017-06-19T06:16:19.243Z,385
2017-06-19T06:17:00.128Z,385
2017-06-19T06:17:41.025Z,385
2017-06-19T06:18:21.989Z,390
2017-06-19T06:19:02.861Z,390
2017-06-19T06:19:43.752Z,390
2017-06-19T06:20:24.663Z,390
2017-06-19T06:22:38.460Z,395
2017-06-19T06:23:19.359Z,395
2017-06-19T06:26:46.694Z,410
2017-06-19T06:27:27.602Z,410
2017-06-19T06:28:08.511Z,415
2017-06-19T06:28:49.414Z,415
2017-06-19T06:29:30.319Z,420
2017-06-19T06:30:11.217Z,420
2017-06-19T06:30:52.137Z,425
2017-06-19T06:31:33.043Z,425
2017-06-19T06:32:13.934Z,430
2017-06-19T06:32:54.839Z,430
2017-06-19T06:33:35.731Z,435
2017-06-19T06:34:16.623Z,440
2017-06-19T06:34:57.519Z,450
2017-06-19T06:35:38.427Z,455
2017-06-19T06:36:19.339Z,470
2017-06-19T06:37:00.318Z,490
2017-06-19T06:37:41.159Z,505
2017-06-19T06:38:22.065Z,525
2017-06-19T06:40:36.992Z,1035
2017-06-19T06:41:17.897Z,1400
2017-06-19T06:41:58.814Z,1730
2017-06-19T06:42:39.932Z,1990
2017-06-19T06:43:20.818Z,2100
2017-06-19T06:44:01.814Z,2175
2017-06-19T06:44:42.716Z,2210
2017-06-19T06:45:23.649Z,1970
2017-06-19T06:46:04.559Z,1690
2017-06-19T06:46:45.470Z,1590
2017-06-19T06:47:26.386Z,1700
2017-06-19T06:48:07.285Z,1990
2017-06-19T06:48:48.193Z,2300
2017-06-19T06:49:29.102Z,2395
2017-06-19T06:50:10.019Z,2540
2017-06-19T06:50:50.923Z,2565
2017-06-19T06:51:31.829Z,2555
2017-06-19T06:52:12.732Z,2485
2017-06-19T06:52:53.652Z,2360
2017-06-19T06:53:34.561Z,2200
2017-06-19T06:54:15.548Z,2040
2017-06-19T06:54:56.480Z,1940
2017-06-19T06:55:37.393Z,1880
2017-06-19T06:56:18.297Z,1885
2017-06-19T06:56:59.207Z,1925
2017-06-19T06:58:58.129Z,2130
2017-06-19T06:59:39.015Z,2185
2017-06-19T07:00:19.933Z,2245
2017-06-19T07:01:00.820Z,2305
2017-06-19T07:01:41.729Z,2340
2017-06-19T07:02:22.641Z,2340
2017-06-19T07:03:05.235Z,2340
2017-06-19T07:03:46.148Z,2330
2017-06-19T07:04:27.057Z,2280
2017-06-19T07:05:08.006Z,2190
2017-06-19T07:05:48.871Z,2040
2017-06-19T07:06:29.783Z,1935
2017-06-19T07:07:10.692Z,1820
2017-06-19T07:07:51.599Z,1715
2017-06-19T07:08:32.594Z,1640
2017-06-19T07:09:13.492Z,1665
2017-06-19T07:09:54.416Z,1690
2017-06-19T07:10:35.398Z,1765
2017-06-19T07:11:16.301Z,1955
2017-06-19T07:11:57.266Z,1630
2017-06-19T07:12:38.249Z,420
2017-06-19T07:15:34.586Z,745
2017-06-19T07:16:15.573Z,1380
2017-06-19T07:16:56.521Z,2135
2017-06-19T07:17:37.471Z,2195
2017-06-19T07:18:18.563Z,2335
2017-06-19T07:18:59.435Z,2455
2017-06-19T07:19:40.357Z,2575
2017-06-19T07:20:21.247Z,2650
2017-06-19T07:21:02.162Z,2700
2017-06-19T07:21:43.073Z,2735
2017-06-19T07:22:23.993Z,2520
2017-06-19T07:23:04.912Z,2280
2017-06-19T07:23:45.909Z,2170
2017-06-19T07:24:26.861Z,2145
2017-06-19T07:25:07.757Z,2295
2017-06-19T07:25:48.660Z,2390
2017-06-19T07:26:29.554Z,2400
2017-06-19T07:27:10.572Z,2445
2017-06-19T07:27:51.485Z,2535
2017-06-19T07:28:32.438Z,515
2017-06-19T07:29:13.291Z,415
2017-06-19T07:29:54.221Z,500
2017-06-19T07:30:35.168Z,1375
2017-06-19T07:31:16.061Z,2140
2017-06-19T07:31:56.983Z,1170
2017-06-19T07:32:37.871Z,2650
2017-06-19T07:33:18.783Z,2645
2017-06-19T07:33:59.691Z,2580
2017-06-19T07:34:40.620Z,2545
2017-06-19T07:35:21.520Z,2610
2017-06-19T07:36:02.479Z,2755
2017-06-19T07:36:43.408Z,2905
2017-06-19T07:37:24.313Z,3010
2017-06-19T07:38:05.264Z,3145
2017-06-19T07:41:36.853Z,2775
2017-06-19T07:42:17.763Z,2715
2017-06-19T07:42:58.666Z,635
2017-06-19T07:43:39.649Z,760
2017-06-19T07:44:20.542Z,1820
2017-06-19T07:45:01.461Z,2665
2017-06-19T07:45:42.439Z,2655
2017-06-19T07:46:23.342Z,2625
2017-06-19T07:47:04.240Z,2660
2017-06-19T07:47:45.154Z,2780
2017-06-19T07:48:26.072Z,2985
2017-06-19T07:49:06.951Z,2425
2017-06-19T07:49:47.867Z,895
2017-06-19T07:50:28.777Z,625
2017-06-19T07:51:09.712Z,455
2017-06-19T07:53:35.251Z,465
2017-06-19T07:55:56.893Z,515
2017-06-19T07:56:37.819Z,515
2017-06-19T07:57:18.754Z,525
2017-06-19T07:57:59.715Z,770
2017-06-19T07:58:40.628Z,670
2017-06-19T07:59:21.548Z,655
2017-06-19T08:00:02.544Z,700
2017-06-19T08:00:43.484Z,765
2017-06-19T08:01:24.387Z,750
2017-06-19T08:02:05.289Z,740
2017-06-19T08:07:10.116Z,710
2017-06-19T08:07:51.023Z,700
2017-06-19T08:08:31.927Z,710
2017-06-19T08:09:12.832Z,720
2017-06-19T08:13:52.282Z,645
2017-06-19T08:14:33.216Z,650
2017-06-19T08:15:14.142Z,685
2017-06-19T08:15:55.112Z,760
2017-06-19T08:16:36.026Z,755
2017-06-19T08:17:16.975Z,805
2017-06-19T08:17:57.897Z,820
2017-06-19T08:18:38.835Z,965
2017-06-19T08:19:19.749Z,1205
2017-06-19T08:20:00.680Z,2525
2017-06-19T08:20:41.608Z,2095
2017-06-19T08:21:22.690Z,1970
2017-06-19T08:23:36.520Z,2350
2017-06-19T08:24:17.436Z,2670
2017-06-19T08:24:58.355Z,2440
2017-06-19T08:25:39.276Z,2460
2017-06-19T08:26:20.207Z,3070
2017-06-19T08:27:01.110Z,3120
2017-06-19T08:27:42.027Z,3105
2017-06-19T08:28:22.933Z,2975
2017-06-19T08:29:04.014Z,3120
2017-06-19T08:31:34.237Z,3350
2017-06-19T08:32:15.219Z,3430
2017-06-19T08:32:56.232Z,3510
2017-06-19T08:33:37.152Z,3590
2017-06-19T08:34:18.079Z,3425
2017-06-19T08:34:58.996Z,3185
2017-06-19T08:35:39.924Z,3175
2017-06-19T08:36:20.830Z,3270
2017-06-19T08:37:01.765Z,3580
2017-06-19T08:37:42.686Z,3630
2017-06-19T08:38:23.593Z,3580
2017-06-19T08:39:04.527Z,3535
2017-06-19T08:39:45.446Z,3460
2017-06-19T08:40:26.360Z,3300
2017-06-19T08:41:07.333Z,3210
2017-06-19T08:41:48.239Z,3155
2017-06-19T08:42:29.162Z,3145
2017-06-19T08:43:10.083Z,2935
2017-06-19T08:43:51.001Z,2970
2017-06-19T08:44:31.922Z,2490
2017-06-19T08:45:12.852Z,490
2017-06-19T08:45:53.762Z,445
2017-06-19T08:46:34.685Z,465
2017-06-19T08:47:15.592Z,530
2017-06-19T08:47:56.565Z,915
2017-06-19T08:48:37.480Z,555
2017-06-19T08:49:18.385Z,770
2017-06-19T08:49:59.291Z,1270
2017-06-19T08:50:40.214Z,2695
2017-06-19T08:51:21.125Z,3030
2017-06-19T08:52:02.045Z,2720
2017-06-19T08:52:42.958Z,2330
2017-06-19T08:53:23.865Z,2020
2017-06-19T08:54:04.809Z,2235
2017-06-19T08:54:45.723Z,2630
2017-06-19T08:55:26.660Z,2985
2017-06-19T08:56:07.545Z,3020
2017-06-19T08:56:48.462Z,2995
2017-06-19T08:57:29.397Z,2990
2017-06-19T08:58:10.305Z,3060
2017-06-19T08:58:51.236Z,3175
2017-06-19T08:59:32.164Z,3295
2017-06-19T09:00:13.074Z,3425
2017-06-19T09:00:53.996Z,3625
2017-06-19T09:01:34.906Z,3715
2017-06-19T09:02:15.861Z,3760
2017-06-19T09:02:56.784Z,3790
2017-06-19T09:03:37.695Z,3775
2017-06-19T09:04:18.602Z,3745
2017-06-19T09:04:59.509Z,3700
2017-06-19T09:05:40.424Z,3660
2017-06-19T09:06:21.329Z,3645
2017-06-19T09:07:02.261Z,3635
2017-06-19T09:07:43.201Z,3610
2017-06-19T09:08:24.110Z,3600
2017-06-19T09:09:05.026Z,3570
2017-06-19T09:09:45.949Z,3585
2017-06-19T09:10:26.858Z,3615
2017-06-19T09:11:07.775Z,3625
2017-06-19T09:11:48.726Z,3655
2017-06-19T09:12:29.660Z,3730
2017-06-19T09:13:10.574Z,3825
2017-06-19T09:13:51.501Z,3860
2017-06-19T09:14:32.416Z,3835
2017-06-19T09:15:13.353Z,3430
2017-06-19T09:15:54.274Z,3215
2017-06-19T09:16:35.204Z,3270
2017-06-19T09:17:16.132Z,3685
2017-06-19T09:17:57.045Z,3660
2017-06-19T09:18:37.973Z,3530
2017-06-19T09:19:18.900Z,3415
2017-06-19T09:19:59.837Z,3355
2017-06-19T09:20:40.808Z,3280
2017-06-19T09:21:21.739Z,3270
2017-06-19T09:22:02.650Z,3300
2017-06-19T09:22:43.564Z,3365
2017-06-19T09:23:24.493Z,3435
2017-06-19T09:24:05.404Z,3505
2017-06-19T09:24:46.320Z,3605
2017-06-19T09:25:27.246Z,3710
2017-06-19T09:26:08.164Z,3740
2017-06-19T09:26:49.089Z,3730
2017-06-19T09:27:30.008Z,3820
2017-06-19T09:28:10.930Z,3815
2017-06-19T09:28:51.843Z,3805
2017-06-19T09:29:32.755Z,3735
2017-06-19T09:30:13.682Z,3620
2017-06-19T09:30:54.610Z,3525
2017-06-19T09:31:35.534Z,3430
2017-06-19T09:32:16.526Z,3350
2017-06-19T09:32:57.424Z,3295
2017-06-19T09:33:38.344Z,3295
2017-06-19T09:34:19.262Z,3370
2017-06-19T09:35:00.181Z,3510
2017-06-19T09:35:41.095Z,3730
2017-06-19T09:36:22.018Z,3845
2017-06-19T09:37:02.941Z,3905
2017-06-19T09:37:43.864Z,4035
2017-06-19T09:38:24.780Z,3910
2017-06-19T09:39:05.712Z,3805
2017-06-19T09:39:46.629Z,3775
2017-06-19T09:40:27.555Z,3240
2017-06-19T09:41:08.489Z,3055
2017-06-19T09:41:49.406Z,3080
2017-06-19T09:42:30.330Z,3200
2017-06-19T09:43:11.252Z,2960
2017-06-19T09:43:52.204Z,2980
2017-06-19T09:44:33.097Z,2995
2017-06-19T09:45:14.020Z,2970
2017-06-19T09:45:54.940Z,2970
2017-06-19T09:46:35.862Z,3015
2017-06-19T09:47:16.787Z,2955
2017-06-19T09:47:57.736Z,3205
2017-06-19T09:48:38.644Z,3120
2017-06-19T09:49:19.570Z,3040
2017-06-19T09:50:00.480Z,3035
2017-06-19T09:50:41.422Z,3110
2017-06-19T09:51:22.335Z,3275
2017-06-19T09:52:03.251Z,3460
2017-06-19T09:52:44.177Z,3615
2017-06-19T09:53:25.104Z,3720
2017-06-19T09:54:06.016Z,3760
2017-06-19T09:54:46.965Z,3745
2017-06-19T09:55:27.873Z,3725
2017-06-19T09:56:08.808Z,3770
2017-06-19T09:56:49.741Z,3740
2017-06-19T09:57:30.665Z,3635
2017-06-19T09:58:11.579Z,2160
2017-06-19T09:58:52.496Z,515
2017-06-19T09:59:33.418Z,500
2017-06-19T10:00:14.340Z,500
2017-06-19T10:00:55.286Z,520
2017-06-19T10:01:36.217Z,645
2017-06-19T10:02:17.142Z,1085
2017-06-19T10:02:58.058Z,2805
2017-06-19T10:03:38.965Z,3855
2017-06-19T10:04:19.873Z,3485
2017-06-19T10:05:00.786Z,3240
2017-06-19T10:05:41.707Z,3155
2017-06-19T10:06:22.630Z,3480
2017-06-19T10:07:03.541Z,3400
2017-06-19T10:07:44.468Z,3240
2017-06-19T10:08:25.392Z,3080
2017-06-19T10:09:06.316Z,3065
2017-06-19T10:09:47.240Z,3135
2017-06-19T10:10:28.159Z,3250
2017-06-19T10:11:09.070Z,3410
2017-06-19T10:11:49.996Z,3560
2017-06-19T10:12:30.914Z,3705
2017-06-19T10:13:11.843Z,3865
2017-06-19T10:13:52.757Z,3935
2017-06-19T10:14:33.679Z,3950
2017-06-19T10:15:14.601Z,3980
2017-06-19T10:15:55.529Z,4070
2017-06-19T10:16:36.439Z,4120
2017-06-19T10:17:17.351Z,4140
2017-06-19T10:17:58.277Z,4105
2017-06-19T10:18:39.203Z,4055
2017-06-19T10:19:20.125Z,3990
2017-06-19T10:20:01.052Z,3945
2017-06-19T10:20:41.975Z,3940
2017-06-19T10:21:22.893Z,3940
2017-06-19T10:22:03.798Z,3945
2017-06-19T10:22:44.737Z,3840
2017-06-19T10:23:25.664Z,3795
2017-06-19T10:24:06.611Z,3750
2017-06-19T10:24:47.514Z,3735
2017-06-19T10:25:28.434Z,3785
2017-06-19T10:26:09.365Z,3940
2017-06-19T10:26:50.286Z,3935
2017-06-19T10:27:31.206Z,3985
2017-06-19T10:28:12.122Z,4070
2017-06-19T10:28:53.048Z,4180
2017-06-19T10:29:33.977Z,4240
2017-06-19T10:30:14.900Z,4275
2017-06-19T10:32:29.584Z,3715
2017-06-19T10:33:10.491Z,2905
2017-06-19T10:33:51.414Z,1710
2017-06-19T10:34:32.335Z,805
2017-06-19T10:35:13.263Z,645
2017-06-19T10:35:54.174Z,615
2017-06-19T10:36:35.116Z,600
2017-06-19T10:37:16.053Z,600
2017-06-19T10:37:56.988Z,615
2017-06-19T10:38:37.916Z,640
2017-06-19T10:39:18.852Z,685
2017-06-19T10:39:59.778Z,1095
2017-06-19T10:40:40.682Z,2630
2017-06-19T10:41:21.605Z,3770
2017-06-19T10:42:02.541Z,4440
2017-06-19T10:42:43.475Z,4400
2017-06-19T10:43:24.410Z,4190
2017-06-19T10:44:05.331Z,4250